KSBN/SBN METAR and TAF weather

Enter ICAO airport designator
Station Type Date Time Source
KSBN METAR 2020/02/24 07:54 UTC NOAA

KSBN 240754Z AUTO 24003KT 10SM CLR 03/01 A2992 RMK AO2 SLP136 T00330011


Station Type Date Time Source
KSBN Decoded METAR 2020/02/24 07:54 UTC NOAA

SOUTH BEND REGIONAL AIRPORT, IN, United States (KSBN) 41-42N 086-19W 237M
Feb 24, 2020 - 02:54 AM EST / 2020.02.24 0754 UTC
Wind: from the WSW (240 degrees) at 3 MPH (3 KT):0
Visibility: 10 mile(s):0
Sky conditions: clear
Temperature: 37.9 F (3.3 C)
Dew Point: 34.0 F (1.1 C)
Relative Humidity: 85%
Pressure (altimeter): 29.92 in. Hg (1013 hPa)
ob: KSBN 240754Z AUTO 24003KT 10SM CLR 03/01 A2992 RMK AO2 SLP136 T00330011
cycle: 8

Station Type Date Time Source
KSBN TAF 2020/02/24 06:22 UTC NOAA

TAF KSBN 240520Z 2406/2506 22009KT P6SM SCT250
FM240900 VRB03KT P6SM BKN250
FM241400 07005KT P6SM BKN180
FM241900 06006KT P6SM -RA BKN035
FM242200 06008KT 4SM -RA OVC025

Example: see airport list